Windsor Locks, Connecticut
Current Conditions -  °F | °C
As of 1:51 AM on Thursday 18 Dec 2014 (Local Time) from KBDL Reporting Station
Overcast Overcast  
Wind Chill: 36°   Ceiling: 3300
Heat Index: 40°   Visibility: 10mi
Dew Point: 29°   Wind: 6mph
Humidity: 65%   Direction: 290°WNW
Pressure: 29.79"   Gusts: NA
Location:  41.93°N, 72.63°W
Report Text: KBDL 180651Z 29005KT 10SM FEW027 BKN033 OVC070 04/M02 A2979 RMK AO2 SLP089 T00441017
Loading
Personal Weather Stations






























Interactive Weather Map New forecast layout! Learn more

10-Day Weather Forecast

Advertisements
Track Severe Weather on mobile